sensor_id;sensor_type;location;lat;lon;timestamp;temperature;humidity
52471;DHT22;38382;53.160;7.026;2024-02-26T00:01:41;2.50;99.90
52471;DHT22;38382;53.160;7.026;2024-02-26T00:04:20;3.10;99.90
52471;DHT22;38382;53.160;7.026;2024-02-26T00:06:47;3.00;99.90
52471;DHT22;38382;53.160;7.026;2024-02-26T00:09:13;3.10;99.90
52471;DHT22;38382;53.160;7.026;2024-02-26T00:11:39;3.20;99.90
52471;DHT22;38382;53.160;7.026;2024-02-26T00:14:05;2.70;99.90
52471;DHT22;38382;53.160;7.026;2024-02-26T00:16:31;3.30;99.90
52471;DHT22;38382;53.160;7.026;2024-02-26T00:18:56;2.60;99.90
52471;DHT22;38382;53.160;7.026;2024-02-26T00:21:22;2.90;99.90
52471;DHT22;38382;53.160;7.026;2024-02-26T00:23:49;2.70;99.90
52471;DHT22;38382;53.160;7.026;2024-02-26T00:26:15;2.70;99.90
52471;DHT22;38382;53.160;7.026;2024-02-26T00:28:41;3.50;99.90
52471;DHT22;38382;53.160;7.026;2024-02-26T00:31:07;2.70;99.90
52471;DHT22;38382;53.160;7.026;2024-02-26T00:33:33;2.80;99.90
52471;DHT22;38382;53.160;7.026;2024-02-26T00:35:58;2.80;99.90
52471;DHT22;38382;53.160;7.026;2024-02-26T00:38:24;2.80;99.90
52471;DHT22;38382;53.160;7.026;2024-02-26T00:40:50;4.00;99.90
52471;DHT22;38382;53.160;7.026;2024-02-26T00:43:15;2.60;99.90
52471;DHT22;38382;53.160;7.026;2024-02-26T00:45:41;2.70;99.90
52471;DHT22;38382;53.160;7.026;2024-02-26T00:48:07;3.00;99.90
52471;DHT22;38382;53.160;7.026;2024-02-26T00:50:33;2.90;99.90
52471;DHT22;38382;53.160;7.026;2024-02-26T00:53:00;3.60;99.90
52471;DHT22;38382;53.160;7.026;2024-02-26T00:55:26;2.70;99.90
52471;DHT22;38382;53.160;7.026;2024-02-26T00:57:52;3.30;99.90
52471;DHT22;38382;53.160;7.026;2024-02-26T01:00:18;2.60;99.90
52471;DHT22;38382;53.160;7.026;2024-02-26T01:02:44;2.70;99.90
52471;DHT22;38382;53.160;7.026;2024-02-26T01:05:12;3.20;99.90
52471;DHT22;38382;53.160;7.026;2024-02-26T01:07:38;3.00;99.90
52471;DHT22;38382;53.160;7.026;2024-02-26T01:10:05;2.70;99.90
52471;DHT22;38382;53.160;7.026;2024-02-26T01:12:35;2.80;99.90
52471;DHT22;38382;53.160;7.026;2024-02-26T01:15:02;2.80;99.90
52471;DHT22;38382;53.160;7.026;2024-02-26T01:17:31;2.80;99.90
52471;DHT22;38382;53.160;7.026;2024-02-26T01:19:56;2.80;99.90
52471;DHT22;38382;53.160;7.026;2024-02-26T01:22:22;2.80;99.90
52471;DHT22;38382;53.160;7.026;2024-02-26T01:24:48;2.90;99.90
52471;DHT22;38382;53.160;7.026;2024-02-26T01:27:14;2.90;99.90
52471;DHT22;38382;53.160;7.026;2024-02-26T01:29:41;4.20;99.90
52471;DHT22;38382;53.160;7.026;2024-02-26T01:32:07;3.10;99.90
52471;DHT22;38382;53.160;7.026;2024-02-26T01:34:33;3.00;99.90
52471;DHT22;38382;53.160;7.026;2024-02-26T01:36:59;3.10;99.90
52471;DHT22;38382;53.160;7.026;2024-02-26T01:39:26;4.00;99.90
52471;DHT22;38382;53.160;7.026;2024-02-26T01:41:53;3.60;99.90
52471;DHT22;38382;53.160;7.026;2024-02-26T01:44:19;3.10;99.90
52471;DHT22;38382;53.160;7.026;2024-02-26T01:46:44;3.50;99.90
52471;DHT22;38382;53.160;7.026;2024-02-26T01:49:12;3.00;99.90
52471;DHT22;38382;53.160;7.026;2024-02-26T01:51:39;3.00;99.90
52471;DHT22;38382;53.160;7.026;2024-02-26T01:54:08;2.90;99.90
52471;DHT22;38382;53.160;7.026;2024-02-26T01:56:35;3.10;99.90
52471;DHT22;38382;53.160;7.026;2024-02-26T01:59:01;4.00;99.90
52471;DHT22;38382;53.160;7.026;2024-02-26T02:01:29;3.20;99.90
52471;DHT22;38382;53.160;7.026;2024-02-26T02:03:57;2.90;99.90
52471;DHT22;38382;53.160;7.026;2024-02-26T02:06:23;3.90;99.90
52471;DHT22;38382;53.160;7.026;2024-02-26T02:08:49;4.20;99.90
52471;DHT22;38382;53.160;7.026;2024-02-26T02:11:16;3.00;99.90
52471;DHT22;38382;53.160;7.026;2024-02-26T02:13:42;2.70;99.90
52471;DHT22;38382;53.160;7.026;2024-02-26T02:16:08;3.30;99.90
52471;DHT22;38382;53.160;7.026;2024-02-26T02:18:34;2.70;99.90
52471;DHT22;38382;53.160;7.026;2024-02-26T02:21:01;3.90;99.90
52471;DHT22;38382;53.160;7.026;2024-02-26T02:23:27;2.70;99.90
52471;DHT22;38382;53.160;7.026;2024-02-26T02:25:53;2.80;99.90
52471;DHT22;38382;53.160;7.026;2024-02-26T02:28:23;2.90;99.90
52471;DHT22;38382;53.160;7.026;2024-02-26T02:30:51;2.80;99.90
52471;DHT22;38382;53.160;7.026;2024-02-26T02:33:17;2.80;99.90
52471;DHT22;38382;53.160;7.026;2024-02-26T02:35:43;2.80;99.90
52471;DHT22;38382;53.160;7.026;2024-02-26T02:38:08;2.80;99.90
52471;DHT22;38382;53.160;7.026;2024-02-26T02:40:34;3.80;99.90
52471;DHT22;38382;53.160;7.026;2024-02-26T02:43:00;2.90;99.90
52471;DHT22;38382;53.160;7.026;2024-02-26T02:45:28;2.70;99.90
52471;DHT22;38382;53.160;7.026;2024-02-26T02:47:53;3.20;99.90
52471;DHT22;38382;53.160;7.026;2024-02-26T02:50:20;3.80;99.90
52471;DHT22;38382;53.160;7.026;2024-02-26T02:52:45;2.60;99.90
52471;DHT22;38382;53.160;7.026;2024-02-26T02:55:12;3.70;99.90
52471;DHT22;38382;53.160;7.026;2024-02-26T02:57:38;2.60;99.90
52471;DHT22;38382;53.160;7.026;2024-02-26T03:00:09;2.50;99.90
52471;DHT22;38382;53.160;7.026;2024-02-26T03:02:36;2.60;99.90
52471;DHT22;38382;53.160;7.026;2024-02-26T03:05:05;2.50;99.90
52471;DHT22;38382;53.160;7.026;2024-02-26T03:07:31;2.60;99.90
52471;DHT22;38382;53.160;7.026;2024-02-26T03:09:56;2.50;99.90
52471;DHT22;38382;53.160;7.026;2024-02-26T03:12:22;2.60;99.90
52471;DHT22;38382;53.160;7.026;2024-02-26T03:14:48;2.50;99.90
52471;DHT22;38382;53.160;7.026;2024-02-26T03:17:14;2.50;99.90
52471;DHT22;38382;53.160;7.026;2024-02-26T03:19:39;2.50;99.90
52471;DHT22;38382;53.160;7.026;2024-02-26T03:22:05;2.40;99.90
52471;DHT22;38382;53.160;7.026;2024-02-26T03:24:31;2.40;99.90
52471;DHT22;38382;53.160;7.026;2024-02-26T03:26:57;2.50;99.90
52471;DHT22;38382;53.160;7.026;2024-02-26T03:29:22;2.50;99.90
52471;DHT22;38382;53.160;7.026;2024-02-26T03:31:48;2.40;99.90
52471;DHT22;38382;53.160;7.026;2024-02-26T03:34:14;2.50;99.90
52471;DHT22;38382;53.160;7.026;2024-02-26T03:36:41;2.50;99.90
52471;DHT22;38382;53.160;7.026;2024-02-26T03:39:06;3.90;99.90
52471;DHT22;38382;53.160;7.026;2024-02-26T03:41:36;2.80;99.90
52471;DHT22;38382;53.160;7.026;2024-02-26T03:44:02;2.50;99.90
52471;DHT22;38382;53.160;7.026;2024-02-26T03:46:28;2.50;99.90
52471;DHT22;38382;53.160;7.026;2024-02-26T03:48:54;2.40;99.90
52471;DHT22;38382;53.160;7.026;2024-02-26T03:51:20;2.40;99.90
52471;DHT22;38382;53.160;7.026;2024-02-26T03:53:45;2.50;99.90
52471;DHT22;38382;53.160;7.026;2024-02-26T03:56:12;2.40;99.90
52471;DHT22;38382;53.160;7.026;2024-02-26T03:58:39;2.50;99.90
52471;DHT22;38382;53.160;7.026;2024-02-26T04:01:07;2.50;99.90
52471;DHT22;38382;53.160;7.026;2024-02-26T04:03:33;2.50;99.90
52471;DHT22;38382;53.160;7.026;2024-02-26T04:05:59;3.50;99.90
52471;DHT22;38382;53.160;7.026;2024-02-26T04:08:24;3.30;99.90
52471;DHT22;38382;53.160;7.026;2024-02-26T04:10:50;2.60;99.90
52471;DHT22;38382;53.160;7.026;2024-02-26T04:13:17;2.50;99.90
52471;DHT22;38382;53.160;7.026;2024-02-26T04:15:43;2.40;99.90
52471;DHT22;38382;53.160;7.026;2024-02-26T04:18:09;2.40;99.90
52471;DHT22;38382;53.160;7.026;2024-02-26T04:20:35;3.00;99.90
52471;DHT22;38382;53.160;7.026;2024-02-26T04:23:00;2.80;99.90
52471;DHT22;38382;53.160;7.026;2024-02-26T04:25:26;3.10;99.90
52471;DHT22;38382;53.160;7.026;2024-02-26T04:27:52;3.30;99.90
52471;DHT22;38382;53.160;7.026;2024-02-26T04:30:18;2.40;99.90
52471;DHT22;38382;53.160;7.026;2024-02-26T04:32:43;3.60;99.90
52471;DHT22;38382;53.160;7.026;2024-02-26T04:35:09;3.10;99.90
52471;DHT22;38382;53.160;7.026;2024-02-26T04:37:35;2.50;99.90
52471;DHT22;38382;53.160;7.026;2024-02-26T04:40:01;2.50;99.90
52471;DHT22;38382;53.160;7.026;2024-02-26T04:42:27;2.50;99.90
52471;DHT22;38382;53.160;7.026;2024-02-26T04:44:54;4.00;99.90
52471;DHT22;38382;53.160;7.026;2024-02-26T04:47:20;2.40;99.90
52471;DHT22;38382;53.160;7.026;2024-02-26T04:49:49;2.40;99.90
52471;DHT22;38382;53.160;7.026;2024-02-26T04:52:15;2.40;99.90
52471;DHT22;38382;53.160;7.026;2024-02-26T04:54:40;2.40;99.90
52471;DHT22;38382;53.160;7.026;2024-02-26T04:57:06;2.50;99.90
52471;DHT22;38382;53.160;7.026;2024-02-26T04:59:32;2.40;99.90
52471;DHT22;38382;53.160;7.026;2024-02-26T05:01:58;2.50;99.90
52471;DHT22;38382;53.160;7.026;2024-02-26T05:04:23;2.50;99.90
52471;DHT22;38382;53.160;7.026;2024-02-26T05:06:49;2.40;99.90
52471;DHT22;38382;53.160;7.026;2024-02-26T05:09:15;3.50;99.90
52471;DHT22;38382;53.160;7.026;2024-02-26T05:11:41;2.40;99.90
52471;DHT22;38382;53.160;7.026;2024-02-26T05:14:07;2.70;99.90
52471;DHT22;38382;53.160;7.026;2024-02-26T05:16:33;2.50;99.90
52471;DHT22;38382;53.160;7.026;2024-02-26T05:18:59;2.60;99.90
52471;DHT22;38382;53.160;7.026;2024-02-26T05:21:24;2.50;99.90
52471;DHT22;38382;53.160;7.026;2024-02-26T05:23:50;3.00;99.90
52471;DHT22;38382;53.160;7.026;2024-02-26T05:26:20;2.50;99.90
52471;DHT22;38382;53.160;7.026;2024-02-26T05:28:47;3.00;99.90
52471;DHT22;38382;53.160;7.026;2024-02-26T05:31:13;3.60;99.90
52471;DHT22;38382;53.160;7.026;2024-02-26T05:33:39;2.40;99.90
52471;DHT22;38382;53.160;7.026;2024-02-26T05:36:05;2.50;99.90
52471;DHT22;38382;53.160;7.026;2024-02-26T05:38:31;2.40;99.90
52471;DHT22;38382;53.160;7.026;2024-02-26T05:40:58;2.40;99.90
52471;DHT22;38382;53.160;7.026;2024-02-26T05:43:25;2.50;99.90
52471;DHT22;38382;53.160;7.026;2024-02-26T05:45:51;3.20;99.90
52471;DHT22;38382;53.160;7.026;2024-02-26T05:48:17;2.60;99.90
52471;DHT22;38382;53.160;7.026;2024-02-26T05:50:45;2.80;99.90
52471;DHT22;38382;53.160;7.026;2024-02-26T05:53:10;3.10;99.90
52471;DHT22;38382;53.160;7.026;2024-02-26T05:55:36;2.50;99.90
52471;DHT22;38382;53.160;7.026;2024-02-26T05:58:02;2.40;99.90
52471;DHT22;38382;53.160;7.026;2024-02-26T06:00:28;2.50;99.90
52471;DHT22;38382;53.160;7.026;2024-02-26T06:02:54;2.40;99.90
52471;DHT22;38382;53.160;7.026;2024-02-26T06:05:20;2.40;99.90
52471;DHT22;38382;53.160;7.026;2024-02-26T06:07:45;2.90;99.90
52471;DHT22;38382;53.160;7.026;2024-02-26T06:10:11;2.50;99.90
52471;DHT22;38382;53.160;7.026;2024-02-26T06:12:39;2.70;99.90
52471;DHT22;38382;53.160;7.026;2024-02-26T06:15:06;2.40;99.90
52471;DHT22;38382;53.160;7.026;2024-02-26T06:17:31;2.40;99.90
52471;DHT22;38382;53.160;7.026;2024-02-26T06:19:57;2.40;99.90
52471;DHT22;38382;53.160;7.026;2024-02-26T06:22:25;2.40;99.90
52471;DHT22;38382;53.160;7.026;2024-02-26T06:24:50;2.50;99.90
52471;DHT22;38382;53.160;7.026;2024-02-26T06:27:16;2.50;99.90
52471;DHT22;38382;53.160;7.026;2024-02-26T06:29:42;2.50;99.90
52471;DHT22;38382;53.160;7.026;2024-02-26T06:32:07;2.50;99.90
52471;DHT22;38382;53.160;7.026;2024-02-26T06:34:33;2.90;99.90
52471;DHT22;38382;53.160;7.026;2024-02-26T06:36:59;2.70;99.90
52471;DHT22;38382;53.160;7.026;2024-02-26T06:39:24;2.90;99.90
52471;DHT22;38382;53.160;7.026;2024-02-26T06:41:50;2.50;99.90
52471;DHT22;38382;53.160;7.026;2024-02-26T06:44:16;3.30;99.90
52471;DHT22;38382;53.160;7.026;2024-02-26T06:46:41;3.70;99.90
52471;DHT22;38382;53.160;7.026;2024-02-26T06:49:07;2.60;99.90
52471;DHT22;38382;53.160;7.026;2024-02-26T06:51:33;2.50;99.90
52471;DHT22;38382;53.160;7.026;2024-02-26T06:53:58;2.50;99.90
52471;DHT22;38382;53.160;7.026;2024-02-26T06:56:24;3.20;99.90
52471;DHT22;38382;53.160;7.026;2024-02-26T06:58:50;2.60;99.90
52471;DHT22;38382;53.160;7.026;2024-02-26T07:01:15;2.60;99.90
52471;DHT22;38382;53.160;7.026;2024-02-26T07:03:41;2.60;99.90
52471;DHT22;38382;53.160;7.026;2024-02-26T07:06:08;2.60;99.90
52471;DHT22;38382;53.160;7.026;2024-02-26T07:08:34;2.70;99.90
52471;DHT22;38382;53.160;7.026;2024-02-26T07:11:00;2.80;99.90
52471;DHT22;38382;53.160;7.026;2024-02-26T07:13:25;4.10;99.90
52471;DHT22;38382;53.160;7.026;2024-02-26T07:15:51;3.30;99.90
52471;DHT22;38382;53.160;7.026;2024-02-26T07:18:17;3.10;99.90
52471;DHT22;38382;53.160;7.026;2024-02-26T07:20:42;3.60;99.90
52471;DHT22;38382;53.160;7.026;2024-02-26T07:23:08;2.80;99.90
52471;DHT22;38382;53.160;7.026;2024-02-26T07:25:34;2.80;99.90
52471;DHT22;38382;53.160;7.026;2024-02-26T07:28:00;2.90;99.90
52471;DHT22;38382;53.160;7.026;2024-02-26T07:30:25;2.80;99.90
52471;DHT22;38382;53.160;7.026;2024-02-26T07:32:51;2.90;99.90
52471;DHT22;38382;53.160;7.026;2024-02-26T07:35:17;2.90;99.90
52471;DHT22;38382;53.160;7.026;2024-02-26T07:37:43;2.90;99.90
52471;DHT22;38382;53.160;7.026;2024-02-26T07:40:09;2.90;99.90
52471;DHT22;38382;53.160;7.026;2024-02-26T07:42:35;2.90;99.90
52471;DHT22;38382;53.160;7.026;2024-02-26T07:45:01;3.30;99.90
52471;DHT22;38382;53.160;7.026;2024-02-26T07:47:27;3.00;99.90
52471;DHT22;38382;53.160;7.026;2024-02-26T07:49:53;3.00;99.90
52471;DHT22;38382;53.160;7.026;2024-02-26T07:52:18;3.10;99.90
52471;DHT22;38382;53.160;7.026;2024-02-26T07:54:44;3.10;99.90
52471;DHT22;38382;53.160;7.026;2024-02-26T07:57:10;3.20;99.90
52471;DHT22;38382;53.160;7.026;2024-02-26T07:59:36;3.20;99.90
52471;DHT22;38382;53.160;7.026;2024-02-26T08:02:01;3.20;99.90
52471;DHT22;38382;53.160;7.026;2024-02-26T08:04:29;3.20;99.90
52471;DHT22;38382;53.160;7.026;2024-02-26T08:06:55;3.20;99.90
52471;DHT22;38382;53.160;7.026;2024-02-26T08:09:21;3.40;99.90
52471;DHT22;38382;53.160;7.026;2024-02-26T08:11:46;3.30;99.90
52471;DHT22;38382;53.160;7.026;2024-02-26T08:14:12;3.80;99.90
52471;DHT22;38382;53.160;7.026;2024-02-26T08:16:38;3.30;99.90
52471;DHT22;38382;53.160;7.026;2024-02-26T08:19:04;3.40;99.90
52471;DHT22;38382;53.160;7.026;2024-02-26T08:21:29;3.50;99.90
52471;DHT22;38382;53.160;7.026;2024-02-26T08:23:55;3.40;99.90
52471;DHT22;38382;53.160;7.026;2024-02-26T08:26:21;3.40;99.90
52471;DHT22;38382;53.160;7.026;2024-02-26T08:28:48;3.40;99.90
52471;DHT22;38382;53.160;7.026;2024-02-26T08:31:14;3.50;99.90
52471;DHT22;38382;53.160;7.026;2024-02-26T08:33:40;3.50;99.90
52471;DHT22;38382;53.160;7.026;2024-02-26T08:36:06;3.60;99.90
52471;DHT22;38382;53.160;7.026;2024-02-26T08:38:32;3.60;99.90
52471;DHT22;38382;53.160;7.026;2024-02-26T08:41:01;4.60;99.90
52471;DHT22;38382;53.160;7.026;2024-02-26T08:43:28;3.70;99.90
52471;DHT22;38382;53.160;7.026;2024-02-26T08:45:54;3.70;99.90
52471;DHT22;38382;53.160;7.026;2024-02-26T08:48:20;3.80;99.90
52471;DHT22;38382;53.160;7.026;2024-02-26T08:50:45;3.80;99.90
52471;DHT22;38382;53.160;7.026;2024-02-26T08:53:11;4.20;99.90
52471;DHT22;38382;53.160;7.026;2024-02-26T08:55:37;3.90;99.90
52471;DHT22;38382;53.160;7.026;2024-02-26T08:58:03;3.90;99.90
52471;DHT22;38382;53.160;7.026;2024-02-26T09:00:29;3.90;99.90
52471;DHT22;38382;53.160;7.026;2024-02-26T09:02:54;4.10;99.90
52471;DHT22;38382;53.160;7.026;2024-02-26T09:05:20;4.00;99.90
52471;DHT22;38382;53.160;7.026;2024-02-26T09:07:46;4.00;99.90
52471;DHT22;38382;53.160;7.026;2024-02-26T09:10:12;4.10;99.90
52471;DHT22;38382;53.160;7.026;2024-02-26T09:12:38;4.10;99.90
52471;DHT22;38382;53.160;7.026;2024-02-26T09:15:07;4.10;99.90
52471;DHT22;38382;53.160;7.026;2024-02-26T09:17:33;4.20;99.90
52471;DHT22;38382;53.160;7.026;2024-02-26T09:19:58;4.20;99.90
52471;DHT22;38382;53.160;7.026;2024-02-26T09:22:24;4.20;99.90
52471;DHT22;38382;53.160;7.026;2024-02-26T09:24:50;4.60;99.90
52471;DHT22;38382;53.160;7.026;2024-02-26T09:27:17;4.80;99.90
52471;DHT22;38382;53.160;7.026;2024-02-26T09:29:43;4.40;99.90
52471;DHT22;38382;53.160;7.026;2024-02-26T09:32:09;4.90;99.90
52471;DHT22;38382;53.160;7.026;2024-02-26T09:34:34;4.50;99.90
52471;DHT22;38382;53.160;7.026;2024-02-26T09:37:00;4.60;99.90
52471;DHT22;38382;53.160;7.026;2024-02-26T09:39:26;4.70;99.90
52471;DHT22;38382;53.160;7.026;2024-02-26T09:42:01;4.70;99.90
52471;DHT22;38382;53.160;7.026;2024-02-26T09:44:30;4.90;99.90
52471;DHT22;38382;53.160;7.026;2024-02-26T09:46:56;4.90;99.90
52471;DHT22;38382;53.160;7.026;2024-02-26T09:49:24;5.00;99.90
52471;DHT22;38382;53.160;7.026;2024-02-26T09:51:51;5.10;99.90
52471;DHT22;38382;53.160;7.026;2024-02-26T09:54:19;5.10;99.90
52471;DHT22;38382;53.160;7.026;2024-02-26T09:56:48;5.20;99.90
52471;DHT22;38382;53.160;7.026;2024-02-26T09:59:17;5.20;99.90
52471;DHT22;38382;53.160;7.026;2024-02-26T10:01:44;5.20;99.90
52471;DHT22;38382;53.160;7.026;2024-02-26T10:04:11;5.20;99.90
52471;DHT22;38382;53.160;7.026;2024-02-26T10:06:37;5.20;99.90
52471;DHT22;38382;53.160;7.026;2024-02-26T10:09:03;5.30;99.90
52471;DHT22;38382;53.160;7.026;2024-02-26T10:11:32;5.30;99.90
52471;DHT22;38382;53.160;7.026;2024-02-26T10:13:58;5.40;99.90
52471;DHT22;38382;53.160;7.026;2024-02-26T10:16:25;5.50;99.90
52471;DHT22;38382;53.160;7.026;2024-02-26T10:18:52;5.50;99.90
52471;DHT22;38382;53.160;7.026;2024-02-26T10:21:22;5.60;99.90
52471;DHT22;38382;53.160;7.026;2024-02-26T10:23:49;5.60;99.90
52471;DHT22;38382;53.160;7.026;2024-02-26T10:26:16;5.70;99.90
52471;DHT22;38382;53.160;7.026;2024-02-26T10:28:43;5.70;99.90
52471;DHT22;38382;53.160;7.026;2024-02-26T10:31:10;5.70;99.90
52471;DHT22;38382;53.160;7.026;2024-02-26T10:33:39;5.70;99.90
52471;DHT22;38382;53.160;7.026;2024-02-26T10:36:06;5.80;99.90
52471;DHT22;38382;53.160;7.026;2024-02-26T10:38:33;5.80;99.90
52471;DHT22;38382;53.160;7.026;2024-02-26T10:40:59;5.80;99.90
52471;DHT22;38382;53.160;7.026;2024-02-26T10:43:26;5.80;99.90
52471;DHT22;38382;53.160;7.026;2024-02-26T10:45:54;5.90;99.90
52471;DHT22;38382;53.160;7.026;2024-02-26T10:48:20;6.00;99.90
52471;DHT22;38382;53.160;7.026;2024-02-26T10:50:46;6.00;99.90
52471;DHT22;38382;53.160;7.026;2024-02-26T10:53:31;6.10;99.90
52471;DHT22;38382;53.160;7.026;2024-02-26T10:56:04;6.10;99.90
52471;DHT22;38382;53.160;7.026;2024-02-26T10:58:39;6.20;99.90
52471;DHT22;38382;53.160;7.026;2024-02-26T11:01:05;6.20;99.90
52471;DHT22;38382;53.160;7.026;2024-02-26T11:03:31;6.20;99.90
52471;DHT22;38382;53.160;7.026;2024-02-26T11:06:00;6.20;99.90
52471;DHT22;38382;53.160;7.026;2024-02-26T11:08:26;6.30;99.90
52471;DHT22;38382;53.160;7.026;2024-02-26T11:10:53;6.60;99.90
52471;DHT22;38382;53.160;7.026;2024-02-26T11:13:21;6.30;99.90
52471;DHT22;38382;53.160;7.026;2024-02-26T11:15:47;6.30;99.90
52471;DHT22;38382;53.160;7.026;2024-02-26T11:18:15;6.30;99.90
52471;DHT22;38382;53.160;7.026;2024-02-26T11:20:42;6.30;99.90
52471;DHT22;38382;53.160;7.026;2024-02-26T11:23:08;6.30;99.90
52471;DHT22;38382;53.160;7.026;2024-02-26T11:25:35;6.90;99.90
52471;DHT22;38382;53.160;7.026;2024-02-26T11:28:05;6.30;99.90
52471;DHT22;38382;53.160;7.026;2024-02-26T11:30:34;6.40;99.90
52471;DHT22;38382;53.160;7.026;2024-02-26T11:33:06;6.40;99.90
52471;DHT22;38382;53.160;7.026;2024-02-26T11:35:32;6.40;99.90
52471;DHT22;38382;53.160;7.026;2024-02-26T11:37:58;6.90;99.90
52471;DHT22;38382;53.160;7.026;2024-02-26T11:40:25;6.50;99.90
52471;DHT22;38382;53.160;7.026;2024-02-26T11:42:51;6.90;99.90
52471;DHT22;38382;53.160;7.026;2024-02-26T11:48:03;6.90;99.90
52471;DHT22;38382;53.160;7.026;2024-02-26T11:50:36;7.00;99.90
52471;DHT22;38382;53.160;7.026;2024-02-26T11:53:27;7.00;99.90
52471;DHT22;38382;53.160;7.026;2024-02-26T11:59:00;7.00;99.90
52471;DHT22;38382;53.160;7.026;2024-02-26T12:01:44;7.00;99.90
52471;DHT22;38382;53.160;7.026;2024-02-26T12:04:18;6.90;99.90
52471;DHT22;38382;53.160;7.026;2024-02-26T12:06:51;6.90;99.90
52471;DHT22;38382;53.160;7.026;2024-02-26T12:09:37;6.90;99.90
52471;DHT22;38382;53.160;7.026;2024-02-26T12:12:08;7.00;99.90
52471;DHT22;38382;53.160;7.026;2024-02-26T12:14:53;7.00;99.90
52471;DHT22;38382;53.160;7.026;2024-02-26T12:17:22;7.00;99.90
52471;DHT22;38382;53.160;7.026;2024-02-26T12:19:48;7.00;99.90
52471;DHT22;38382;53.160;7.026;2024-02-26T12:22:14;7.10;99.90
52471;DHT22;38382;53.160;7.026;2024-02-26T12:24:44;7.20;99.90
52471;DHT22;38382;53.160;7.026;2024-02-26T12:27:10;7.20;99.90
52471;DHT22;38382;53.160;7.026;2024-02-26T12:29:36;7.30;99.90
52471;DHT22;38382;53.160;7.026;2024-02-26T12:32:03;7.40;99.90
52471;DHT22;38382;53.160;7.026;2024-02-26T12:34:29;7.50;99.90
52471;DHT22;38382;53.160;7.026;2024-02-26T12:36:56;7.60;99.90
52471;DHT22;38382;53.160;7.026;2024-02-26T12:39:23;7.50;99.90
52471;DHT22;38382;53.160;7.026;2024-02-26T12:41:48;7.50;99.90
52471;DHT22;38382;53.160;7.026;2024-02-26T12:44:18;7.40;99.90
52471;DHT22;38382;53.160;7.026;2024-02-26T12:46:44;7.30;99.90
52471;DHT22;38382;53.160;7.026;2024-02-26T12:49:15;7.30;99.90
52471;DHT22;38382;53.160;7.026;2024-02-26T12:51:42;7.20;99.90
52471;DHT22;38382;53.160;7.026;2024-02-26T12:54:08;7.10;99.90
52471;DHT22;38382;53.160;7.026;2024-02-26T12:56:34;7.00;99.90
52471;DHT22;38382;53.160;7.026;2024-02-26T12:59:00;6.90;99.90
52471;DHT22;38382;53.160;7.026;2024-02-26T13:01:28;6.70;99.90
52471;DHT22;38382;53.160;7.026;2024-02-26T13:03:54;6.70;99.90
52471;DHT22;38382;53.160;7.026;2024-02-26T13:06:20;6.60;99.90
52471;DHT22;38382;53.160;7.026;2024-02-26T13:08:47;6.50;99.90
52471;DHT22;38382;53.160;7.026;2024-02-26T13:11:14;6.40;99.90
52471;DHT22;38382;53.160;7.026;2024-02-26T13:13:47;6.40;99.90
52471;DHT22;38382;53.160;7.026;2024-02-26T13:16:15;6.40;99.90
52471;DHT22;38382;53.160;7.026;2024-02-26T13:18:41;6.30;99.90
52471;DHT22;38382;53.160;7.026;2024-02-26T13:21:08;6.30;99.90
52471;DHT22;38382;53.160;7.026;2024-02-26T13:23:34;6.30;99.90
52471;DHT22;38382;53.160;7.026;2024-02-26T13:26:00;6.30;99.90
52471;DHT22;38382;53.160;7.026;2024-02-26T13:28:26;6.20;99.90
52471;DHT22;38382;53.160;7.026;2024-02-26T13:30:54;6.20;99.90
52471;DHT22;38382;53.160;7.026;2024-02-26T13:33:23;6.20;99.90
52471;DHT22;38382;53.160;7.026;2024-02-26T13:35:50;6.20;99.90
52471;DHT22;38382;53.160;7.026;2024-02-26T13:38:16;6.10;99.90
52471;DHT22;38382;53.160;7.026;2024-02-26T13:40:42;6.40;99.90
52471;DHT22;38382;53.160;7.026;2024-02-26T13:43:08;6.10;99.90
52471;DHT22;38382;53.160;7.026;2024-02-26T13:45:38;6.10;99.90
52471;DHT22;38382;53.160;7.026;2024-02-26T13:48:13;6.10;99.90
52471;DHT22;38382;53.160;7.026;2024-02-26T13:50:40;6.00;99.90
52471;DHT22;38382;53.160;7.026;2024-02-26T13:53:09;6.00;99.90
52471;DHT22;38382;53.160;7.026;2024-02-26T13:55:34;6.00;99.90
52471;DHT22;38382;53.160;7.026;2024-02-26T13:58:01;6.00;99.90
52471;DHT22;38382;53.160;7.026;2024-02-26T14:00:28;5.90;99.90
52471;DHT22;38382;53.160;7.026;2024-02-26T14:02:55;5.90;99.90
52471;DHT22;38382;53.160;7.026;2024-02-26T14:05:20;5.90;99.90
52471;DHT22;38382;53.160;7.026;2024-02-26T14:07:46;5.90;99.90
52471;DHT22;38382;53.160;7.026;2024-02-26T14:10:12;5.90;99.90
52471;DHT22;38382;53.160;7.026;2024-02-26T14:12:38;5.80;99.90
52471;DHT22;38382;53.160;7.026;2024-02-26T14:15:08;5.80;99.90
52471;DHT22;38382;53.160;7.026;2024-02-26T14:17:35;5.80;99.90
52471;DHT22;38382;53.160;7.026;2024-02-26T14:20:01;6.00;99.90
52471;DHT22;38382;53.160;7.026;2024-02-26T14:22:27;5.80;99.90
52471;DHT22;38382;53.160;7.026;2024-02-26T14:24:53;6.80;99.90
52471;DHT22;38382;53.160;7.026;2024-02-26T14:27:19;5.80;99.90
52471;DHT22;38382;53.160;7.026;2024-02-26T14:29:48;5.80;99.90
52471;DHT22;38382;53.160;7.026;2024-02-26T14:32:14;5.80;99.90
52471;DHT22;38382;53.160;7.026;2024-02-26T14:34:40;5.90;99.90
52471;DHT22;38382;53.160;7.026;2024-02-26T14:37:06;5.80;99.90
52471;DHT22;38382;53.160;7.026;2024-02-26T14:39:32;5.80;99.90
52471;DHT22;38382;53.160;7.026;2024-02-26T14:41:59;5.80;99.90
52471;DHT22;38382;53.160;7.026;2024-02-26T14:44:25;5.80;99.90
52471;DHT22;38382;53.160;7.026;2024-02-26T14:46:51;5.80;99.90
52471;DHT22;38382;53.160;7.026;2024-02-26T14:49:17;5.70;99.90
52471;DHT22;38382;53.160;7.026;2024-02-26T14:51:43;6.00;99.90
52471;DHT22;38382;53.160;7.026;2024-02-26T14:54:12;5.80;99.90
52471;DHT22;38382;53.160;7.026;2024-02-26T14:56:38;5.90;99.90
52471;DHT22;38382;53.160;7.026;2024-02-26T14:59:04;5.70;99.90
52471;DHT22;38382;53.160;7.026;2024-02-26T15:01:30;5.90;99.90
52471;DHT22;38382;53.160;7.026;2024-02-26T15:03:56;5.70;99.90
52471;DHT22;38382;53.160;7.026;2024-02-26T15:06:23;5.70;99.90
52471;DHT22;38382;53.160;7.026;2024-02-26T15:08:48;6.00;99.90
52471;DHT22;38382;53.160;7.026;2024-02-26T15:11:14;5.70;99.90
52471;DHT22;38382;53.160;7.026;2024-02-26T15:13:41;5.70;99.90
52471;DHT22;38382;53.160;7.026;2024-02-26T15:16:07;5.60;99.90
52471;DHT22;38382;53.160;7.026;2024-02-26T15:18:32;5.60;99.90
52471;DHT22;38382;53.160;7.026;2024-02-26T15:20:58;5.70;99.90
52471;DHT22;38382;53.160;7.026;2024-02-26T15:23:24;5.50;99.90
52471;DHT22;38382;53.160;7.026;2024-02-26T15:25:50;5.60;99.90
52471;DHT22;38382;53.160;7.026;2024-02-26T15:28:15;5.60;99.90
52471;DHT22;38382;53.160;7.026;2024-02-26T15:30:41;5.50;99.90
52471;DHT22;38382;53.160;7.026;2024-02-26T15:33:07;5.50;99.90
52471;DHT22;38382;53.160;7.026;2024-02-26T15:35:34;5.50;99.90
52471;DHT22;38382;53.160;7.026;2024-02-26T15:38:00;5.50;99.90
52471;DHT22;38382;53.160;7.026;2024-02-26T15:40:26;5.50;99.90
52471;DHT22;38382;53.160;7.026;2024-02-26T15:42:52;5.60;99.90
52471;DHT22;38382;53.160;7.026;2024-02-26T15:45:18;5.50;99.90
52471;DHT22;38382;53.160;7.026;2024-02-26T15:47:44;5.50;99.90